Time;durP1;ratioP1;P1;durP2;ratioP2;P2;SDS_P1;SDS_P2;PMS_P1;PMS_P2;Temp;Humidity;BMP_temperature;BMP_pressure;BME280_temperature;BME280_humidity;BME280_pressure;Samples;Min_cycle;Max_cycle;Signal;HPM_P1;HPM_P2
2023/11/11 00:00:32;;;;;;;0.67;0.60;;;5.20;99.90;4.90;99008.00;;;;4893413;28;92830;-67
2023/11/11 00:02:58;;;;;;;0.87;0.50;;;5.10;99.90;4.90;99012.00;;;;4887837;28;93638;-67
2023/11/11 00:05:24;;;;;;;0.63;0.60;;;5.20;99.90;4.80;99004.00;;;;4890610;28;121588;-67
2023/11/11 00:07:50;;;;;;;0.73;0.73;;;5.10;99.90;4.80;99010.00;;;;4888633;28;93635;-67
2023/11/11 00:10:17;;;;;;;0.73;0.73;;;5.00;99.90;4.70;99012.00;;;;4890758;28;93068;-67
2023/11/11 00:12:47;;;;;;;0.97;0.80;;;5.00;99.90;4.70;99003.00;;;;4869196;28;94970;-67
2023/11/11 00:15:13;;;;;;;0.60;0.60;;;4.90;99.90;4.60;99004.00;;;;4889510;28;94632;-67
2023/11/11 00:17:39;;;;;;;1.23;0.90;;;4.90;99.90;4.60;99005.00;;;;4887697;28;92995;-67
2023/11/11 00:20:12;;;;;;;1.03;0.67;;;4.80;99.90;4.60;98995.00;;;;4873626;28;109165;-67
2023/11/11 00:22:43;;;;;;;2.00;1.20;;;4.80;99.90;4.50;99007.00;;;;4891088;28;94040;-68
2023/11/11 00:25:09;;;;;;;0.83;0.63;;;4.70;99.90;4.50;99009.00;;;;4886976;28;92992;-67
2023/11/11 00:27:35;;;;;;;1.27;1.17;;;4.70;99.90;4.50;99009.00;;;;4890254;28;92941;-68
2023/11/11 00:30:05;;;;;;;1.90;1.10;;;4.70;99.90;4.40;99013.00;;;;4894437;28;92495;-67
2023/11/11 00:32:31;;;;;;;3.03;0.83;;;4.70;99.90;4.30;99013.00;;;;4887454;28;93970;-67
2023/11/11 00:35:01;;;;;;;1.03;0.97;;;4.60;99.90;4.30;99012.00;;;;4870565;28;105094;-67
2023/11/11 00:37:26;;;;;;;0.70;0.70;;;4.50;99.90;4.20;99010.00;;;;4887726;28;94217;-67
2023/11/11 00:39:52;;;;;;;1.43;0.80;;;4.40;99.90;4.10;99008.00;;;;4887248;28;109685;-67
2023/11/11 00:42:18;;;;;;;1.10;1.10;;;4.40;99.90;4.10;99025.00;;;;4887663;28;122766;-67
2023/11/11 00:44:44;;;;;;;0.93;0.90;;;4.40;99.90;4.10;99011.00;;;;4887727;28;93450;-67
2023/11/11 00:47:13;;;;;;;1.53;1.17;;;4.40;99.90;4.10;99016.00;;;;4888169;28;93093;-67
2023/11/11 00:49:41;;;;;;;1.70;1.10;;;5.00;99.90;4.00;99015.00;;;;4876458;28;93126;-67
2023/11/11 00:52:07;;;;;;;3.17;1.27;;;4.30;99.90;4.10;99018.00;;;;4894151;28;92870;-68
2023/11/11 00:54:33;;;;;;;0.90;0.87;;;4.30;99.90;4.00;99008.00;;;;4889150;28;92505;-67
2023/11/11 00:57:00;;;;;;;1.47;1.10;;;4.30;99.90;4.00;98998.00;;;;4889405;28;92932;-67
2023/11/11 00:59:26;;;;;;;1.60;1.37;;;4.30;99.90;4.00;98999.00;;;;4872667;28;97064;-67
2023/11/11 01:01:52;;;;;;;1.10;1.00;;;4.20;99.90;4.00;99004.00;;;;4886607;28;94887;-67
2023/11/11 01:04:17;;;;;;;1.20;1.00;;;4.20;99.90;4.00;99009.00;;;;4887685;28;123575;-67
2023/11/11 01:06:43;;;;;;;1.47;1.37;;;4.20;99.90;4.00;99002.00;;;;4890696;28;93371;-67
2023/11/11 01:09:13;;;;;;;0.93;0.83;;;5.00;99.90;4.00;99011.00;;;;4888150;28;109860;-67
2023/11/11 01:11:41;;;;;;;1.30;1.07;;;4.20;99.90;3.90;99001.00;;;;4886548;28;94722;-67
2023/11/11 01:14:07;;;;;;;1.13;1.03;;;4.20;99.90;4.00;98997.00;;;;4888229;28;94563;-67
2023/11/11 01:16:33;;;;;;;1.50;0.77;;;4.20;99.90;4.00;99002.00;;;;4885555;28;94235;-67
2023/11/11 01:18:59;;;;;;;1.60;0.83;;;4.20;99.90;4.00;99007.00;;;;4887617;28;92502;-67
2023/11/11 01:21:25;;;;;;;1.00;1.00;;;4.20;99.90;4.00;98999.00;;;;4884083;28;122090;-67
2023/11/11 01:23:51;;;;;;;1.53;1.00;;;4.30;99.90;3.90;99005.00;;;;4887668;28;99338;-67
2023/11/11 01:26:19;;;;;;;0.80;0.80;;;4.20;99.90;3.90;99000.00;;;;4886660;28;94229;-68
2023/11/11 01:28:45;;;;;;;0.47;0.47;;;4.20;99.90;3.80;98995.00;;;;4887339;28;108529;-67
2023/11/11 01:31:10;;;;;;;0.60;0.60;;;4.30;99.90;3.80;99005.00;;;;4887947;28;102036;-67
2023/11/11 01:33:36;;;;;;;2.30;0.93;;;4.10;99.90;3.80;99000.00;;;;4885647;28;121668;-68
2023/11/11 01:36:04;;;;;;;0.30;0.30;;;4.00;99.90;3.80;98987.00;;;;4886465;28;108948;-67
2023/11/11 01:38:30;;;;;;;0.67;0.67;;;4.10;99.90;3.80;98989.00;;;;4888400;28;93183;-67
2023/11/11 01:40:56;;;;;;;0.83;0.63;;;4.00;99.90;3.80;98982.00;;;;4886685;28;123406;-68
2023/11/11 01:43:23;;;;;;;1.90;1.40;;;3.90;99.90;3.80;98987.00;;;;4882666;28;122925;-67
2023/11/11 01:45:51;;;;;;;2.13;1.73;;;4.00;99.90;3.80;98980.00;;;;4885047;28;92992;-67
2023/11/11 01:48:17;;;;;;;3.07;1.80;;;4.00;99.90;3.80;98983.00;;;;4869412;28;96690;-67
2023/11/11 01:50:44;;;;;;;4.03;1.90;;;4.00;99.90;3.80;98980.00;;;;4884087;28;124226;-67
2023/11/11 01:53:11;;;;;;;2.50;1.50;;;4.00;99.90;3.80;98972.00;;;;4887270;28;124149;-67
2023/11/11 01:55:37;;;;;;;1.33;1.23;;;4.00;99.90;3.80;98978.00;;;;4869672;28;93297;-67
2023/11/11 01:58:04;;;;;;;1.17;1.00;;;4.00;99.90;3.80;98974.00;;;;4867537;28;101984;-67
2023/11/11 02:00:38;;;;;;;1.90;1.20;;;4.00;99.90;3.80;98969.00;;;;4887292;28;93257;-67
2023/11/11 02:03:05;;;;;;;1.33;0.93;;;4.10;99.90;3.80;98966.00;;;;4891974;28;93504;-67
2023/11/11 02:05:31;;;;;;;1.00;0.90;;;4.10;99.90;3.90;98965.00;;;;4892900;28;93422;-68
2023/11/11 02:07:58;;;;;;;1.50;0.73;;;4.10;99.90;3.90;98959.00;;;;4873944;28;92897;-67
2023/11/11 02:10:24;;;;;;;1.40;0.97;;;4.10;99.90;4.00;98963.00;;;;4888242;28;95801;-67
2023/11/11 02:12:53;;;;;;;0.60;0.60;;;4.20;99.90;4.00;98960.00;;;;4876087;28;123504;-66
2023/11/11 02:15:22;;;;;;;0.87;0.63;;;4.20;99.90;4.00;98963.00;;;;4892224;28;93889;-66
2023/11/11 02:17:55;;;;;;;0.60;0.50;;;4.20;99.90;4.10;98957.00;;;;4870267;28;95988;-66
2023/11/11 02:20:20;;;;;;;0.60;0.60;;;4.30;99.90;4.10;98946.00;;;;4885127;28;94252;-66
2023/11/11 02:22:47;;;;;;;0.70;0.70;;;4.40;99.90;4.20;98947.00;;;;4889229;28;93565;-66
2023/11/11 02:25:13;;;;;;;0.80;0.80;;;4.50;99.90;4.20;98951.00;;;;4893547;28;93140;-66
2023/11/11 02:27:38;;;;;;;0.60;0.60;;;4.30;99.90;4.20;98950.00;;;;4890922;28;108823;-66
2023/11/11 02:30:11;;;;;;;0.87;0.80;;;4.40;99.90;4.30;98958.00;;;;4891144;28;121202;-66
2023/11/11 02:32:37;;;;;;;0.80;0.67;;;4.40;99.90;4.30;98951.00;;;;4892684;28;92754;-65
2023/11/11 02:35:04;;;;;;;1.23;0.67;;;4.50;99.90;4.30;98956.00;;;;4890237;28;101737;-65
2023/11/11 02:37:29;;;;;;;0.50;0.50;;;4.60;99.90;4.40;98952.00;;;;4893517;28;92959;-67
2023/11/11 02:39:55;;;;;;;0.63;0.57;;;4.60;99.90;4.40;98948.00;;;;4890516;28;123484;-67
2023/11/11 02:42:21;;;;;;;0.90;0.80;;;4.70;99.90;4.50;98942.00;;;;4885583;28;123139;-68
2023/11/11 02:44:47;;;;;;;0.80;0.73;;;5.20;99.90;4.50;98945.00;;;;4870050;28;110272;-67
2023/11/11 02:47:12;;;;;;;0.70;0.70;;;4.60;99.90;4.50;98946.00;;;;4893458;28;108534;-68
2023/11/11 02:49:38;;;;;;;0.87;0.57;;;5.00;99.90;4.50;98949.00;;;;4892422;28;121477;-67
2023/11/11 02:52:04;;;;;;;1.47;0.70;;;4.80;99.90;4.50;98941.00;;;;4884649;28;121910;-66
2023/11/11 02:54:30;;;;;;;0.77;0.77;;;4.70;99.90;4.50;98939.00;;;;4889105;28;101159;-66
2023/11/11 02:56:55;;;;;;;0.40;0.40;;;4.70;99.90;4.50;98950.00;;;;4891405;28;108188;-67
2023/11/11 02:59:21;;;;;;;0.50;0.40;;;5.10;99.90;4.60;98941.00;;;;4892685;28;93511;-66
2023/11/11 03:01:47;;;;;;;2.13;0.80;;;4.70;99.90;4.60;98926.00;;;;4890560;28;122786;-65
2023/11/11 03:04:12;;;;;;;1.27;0.77;;;5.10;99.90;4.60;98935.00;;;;4892951;28;109382;-68
2023/11/11 03:06:42;;;;;;;0.50;0.50;;;5.50;99.90;4.60;98929.00;;;;4891072;28;108379;-67
2023/11/11 03:09:11;;;;;;;1.60;1.13;;;4.70;99.90;4.60;98921.00;;;;4888208;28;94040;-65
2023/11/11 03:11:37;;;;;;;0.77;0.77;;;4.80;99.90;4.60;98923.00;;;;4892129;28;93060;-65
2023/11/11 03:14:03;;;;;;;1.40;0.60;;;4.40;99.90;4.60;98925.00;;;;4889543;28;93097;-65
2023/11/11 03:16:36;;;;;;;2.83;0.70;;;4.70;99.90;4.50;98924.00;;;;4890362;28;92974;-65
2023/11/11 03:19:03;;;;;;;0.77;0.70;;;4.80;99.90;4.40;98919.00;;;;4868388;28;94696;-66
2023/11/11 03:21:30;;;;;;;1.23;1.03;;;4.60;99.90;4.40;98924.00;;;;4868429;28;92617;-65
2023/11/11 03:23:55;;;;;;;2.97;1.20;;;4.60;99.90;4.30;98908.00;;;;4892735;28;93528;-66
2023/11/11 03:26:23;;;;;;;1.60;1.20;;;4.60;99.90;4.20;98909.00;;;;4893315;28;93544;-65
2023/11/11 03:28:49;;;;;;;0.70;0.60;;;4.50;99.90;4.20;98916.00;;;;4889680;28;95050;-65
2023/11/11 03:31:17;;;;;;;0.93;0.67;;;4.40;99.90;4.10;98921.00;;;;4889251;28;97909;-66
2023/11/11 03:33:43;;;;;;;0.90;0.73;;;4.40;99.90;4.00;98920.00;;;;4892696;28;92807;-66
2023/11/11 03:36:09;;;;;;;1.50;1.40;;;4.30;99.90;3.90;98909.00;;;;4890202;28;102230;-67
2023/11/11 03:38:34;;;;;;;1.10;0.70;;;4.20;99.90;3.90;98905.00;;;;4888307;28;103213;-67
2023/11/11 03:41:00;;;;;;;1.40;0.97;;;4.10;99.90;3.80;98902.00;;;;4889149;28;121145;-65
2023/11/11 03:43:26;;;;;;;1.90;0.97;;;4.00;99.90;3.70;98903.00;;;;4886843;28;111136;-65
2023/11/11 03:45:51;;;;;;;2.33;0.97;;;4.70;99.90;3.70;98900.00;;;;4890945;28;92084;-65
2023/11/11 03:48:17;;;;;;;1.20;1.10;;;3.90;99.90;3.60;98916.00;;;;4887468;28;121972;-67
2023/11/11 03:50:43;;;;;;;0.80;0.80;;;4.10;99.90;3.50;98906.00;;;;4887532;28;93291;-68
2023/11/11 03:53:08;;;;;;;1.70;1.03;;;3.80;99.90;3.50;98913.00;;;;4884605;28;100306;-67
2023/11/11 03:55:34;;;;;;;1.10;1.00;;;3.80;99.90;3.50;98903.00;;;;4889682;28;108534;-67
2023/11/11 03:58:00;;;;;;;2.53;1.33;;;3.80;99.90;3.40;98911.00;;;;4885747;28;93222;-66
2023/11/11 04:00:26;;;;;;;1.43;0.97;;;3.60;99.90;3.40;98905.00;;;;4888665;28;122194;-66
2023/11/11 04:02:53;;;;;;;1.37;1.00;;;3.70;99.90;3.40;98902.00;;;;4888283;28;93337;-67
2023/11/11 04:05:20;;;;;;;2.80;1.83;;;3.70;99.90;3.40;98912.00;;;;4885565;28;94332;-66
2023/11/11 04:07:47;;;;;;;1.23;1.10;;;3.60;99.90;3.30;98906.00;;;;4875748;28;95977;-66
2023/11/11 04:10:17;;;;;;;1.00;0.90;;;3.60;99.90;3.30;98906.00;;;;4889798;28;92354;-65
2023/11/11 04:12:44;;;;;;;2.07;1.27;;;3.60;99.90;3.30;98910.00;;;;4888679;28;94249;-66
2023/11/11 04:15:10;;;;;;;2.27;1.60;;;3.60;99.90;3.20;98900.00;;;;4887601;28;93495;-66
2023/11/11 04:17:43;;;;;;;1.10;0.97;;;3.50;99.90;3.20;98905.00;;;;4889320;28;94927;-66
2023/11/11 04:20:11;;;;;;;1.40;1.23;;;4.30;99.90;3.20;98897.00;;;;4890707;28;114782;-66
2023/11/11 04:22:40;;;;;;;2.03;1.53;;;3.50;99.90;3.10;98895.00;;;;4891113;28;92781;-66
2023/11/11 04:25:08;;;;;;;1.57;1.30;;;3.40;99.90;3.10;98904.00;;;;4889397;28;92897;-66
2023/11/11 04:27:35;;;;;;;1.23;1.10;;;3.40;99.90;3.10;98906.00;;;;4891453;28;93074;-67
2023/11/11 04:30:01;;;;;;;4.70;1.27;;;3.50;99.90;3.00;98900.00;;;;4892443;28;93017;-65
2023/11/11 04:32:27;;;;;;;2.33;1.33;;;3.30;99.90;3.00;98903.00;;;;4890683;28;93091;-65
2023/11/11 04:34:52;;;;;;;3.03;1.47;;;3.30;99.90;3.00;98904.00;;;;4890581;28;109261;-65
2023/11/11 04:37:18;;;;;;;1.43;1.30;;;3.30;99.90;3.00;98895.00;;;;4884998;28;110498;-65
2023/11/11 04:39:45;;;;;;;1.13;1.10;;;3.20;99.90;2.90;98897.00;;;;4888630;28;100789;-65
2023/11/11 04:42:20;;;;;;;3.80;1.57;;;3.20;99.90;2.90;98897.00;;;;4890765;28;93885;-65
2023/11/11 04:44:46;;;;;;;2.33;1.17;;;3.20;99.90;2.90;98900.00;;;;4892718;28;93102;-65
2023/11/11 04:47:12;;;;;;;2.43;1.63;;;3.60;99.90;2.90;98904.00;;;;4891638;28;94009;-67
2023/11/11 04:49:38;;;;;;;1.33;1.10;;;3.10;99.90;2.90;98898.00;;;;4889178;28;92794;-66
2023/11/11 04:52:06;;;;;;;2.80;1.83;;;3.10;99.90;2.90;98898.00;;;;4888218;28;111484;-66
2023/11/11 04:54:32;;;;;;;3.80;2.00;;;3.10;99.90;2.90;98905.00;;;;4865613;28;97927;-66
2023/11/11 04:57:01;;;;;;;2.23;1.20;;;3.20;99.90;2.90;98908.00;;;;4883712;28;123745;-66
2023/11/11 04:59:27;;;;;;;1.73;1.30;;;3.20;99.90;3.00;98898.00;;;;4886857;28;93174;-66
2023/11/11 05:01:54;;;;;;;1.03;1.03;;;3.20;99.90;3.00;98906.00;;;;4892766;28;94076;-67
2023/11/11 05:04:20;;;;;;;2.53;1.80;;;3.20;99.90;3.10;98910.00;;;;4891336;28;93425;-66
2023/11/11 05:06:46;;;;;;;1.90;1.67;;;3.50;99.90;3.20;98904.00;;;;4890878;28;94355;-67
2023/11/11 05:09:12;;;;;;;2.17;1.77;;;3.30;99.90;3.20;98906.00;;;;4886905;28;93769;-67
2023/11/11 05:11:38;;;;;;;4.10;2.10;;;3.40;99.90;3.30;98916.00;;;;4890061;28;93027;-67
2023/11/11 05:14:09;;;;;;;2.07;1.77;;;3.50;99.90;3.40;98913.00;;;;4888490;28;92905;-67
2023/11/11 05:16:39;;;;;;;2.20;1.20;;;3.60;99.90;3.40;98905.00;;;;4888305;28;93979;-66
2023/11/11 05:19:08;;;;;;;2.53;1.60;;;3.60;99.90;3.50;98909.00;;;;4889807;28;93027;-66
2023/11/11 05:21:34;;;;;;;1.70;1.50;;;3.70;99.90;3.50;98903.00;;;;4857505;28;93262;-66
2023/11/11 05:24:00;;;;;;;2.47;1.90;;;3.70;99.90;3.60;98906.00;;;;4879775;28;93768;-66
2023/11/11 05:26:30;;;;;;;1.73;1.60;;;3.80;99.90;3.60;98898.00;;;;4887342;28;93703;-66
2023/11/11 05:28:57;;;;;;;2.03;1.40;;;3.70;99.90;3.60;98901.00;;;;4890260;28;93495;-66
2023/11/11 05:31:25;;;;;;;1.33;1.23;;;3.80;99.90;3.60;98899.00;;;;4887321;28;94092;-65
2023/11/11 05:33:51;;;;;;;1.37;1.20;;;3.80;99.90;3.60;98895.00;;;;4887996;28;93133;-65
2023/11/11 05:36:19;;;;;;;2.00;1.73;;;3.80;99.90;3.50;98900.00;;;;4893926;28;93016;-65
2023/11/11 05:38:47;;;;;;;3.03;1.60;;;3.70;99.90;3.50;98900.00;;;;4891108;28;93816;-65
2023/11/11 05:41:13;;;;;;;1.93;1.77;;;3.80;99.90;3.40;98909.00;;;;4893090;28;93154;-65
2023/11/11 05:43:39;;;;;;;2.33;2.00;;;3.70;99.90;3.30;98915.00;;;;4893405;28;93316;-66
2023/11/11 05:46:05;;;;;;;1.73;1.50;;;3.60;99.90;3.20;98919.00;;;;4894491;28;94327;-65
2023/11/11 05:48:30;;;;;;;3.77;1.87;;;3.50;99.90;3.20;98923.00;;;;4893954;28;93050;-66
2023/11/11 05:50:56;;;;;;;3.47;2.97;;;3.40;99.90;3.10;98920.00;;;;4886720;28;109081;-65
2023/11/11 05:53:22;;;;;;;1.83;1.73;;;3.30;99.90;3.00;98916.00;;;;4888022;28;109239;-65
2023/11/11 05:55:47;;;;;;;3.03;1.93;;;3.30;99.90;3.00;98920.00;;;;4891951;28;121793;-66
2023/11/11 05:58:15;;;;;;;3.03;2.17;;;3.20;99.90;2.90;98925.00;;;;4890643;28;122331;-65
2023/11/11 06:00:40;;;;;;;2.90;2.20;;;3.20;99.90;2.80;98931.00;;;;4891719;28;94775;-65
2023/11/11 06:03:06;;;;;;;1.97;1.70;;;3.80;99.90;2.80;98929.00;;;;4889675;28;99018;-65
2023/11/11 06:05:34;;;;;;;2.77;1.83;;;3.00;99.90;2.70;98927.00;;;;4890702;28;122624;-65
2023/11/11 06:08:01;;;;;;;2.27;1.90;;;3.10;99.90;2.70;98928.00;;;;4891587;28;93553;-65
2023/11/11 06:10:30;;;;;;;1.57;1.40;;;3.00;99.90;2.70;98938.00;;;;4889621;28;92889;-65
2023/11/11 06:12:59;;;;;;;4.10;2.00;;;3.00;99.90;2.70;98945.00;;;;4892071;28;95273;-65
2023/11/11 06:15:25;;;;;;;2.30;1.60;;;3.00;99.90;2.70;98949.00;;;;4891470;28;93600;-66
2023/11/11 06:17:50;;;;;;;2.27;1.40;;;3.00;99.90;2.70;98940.00;;;;4885574;28;93892;-66
2023/11/11 06:20:17;;;;;;;2.90;1.90;;;3.00;99.90;2.70;98942.00;;;;4892681;28;94193;-66
2023/11/11 06:22:42;;;;;;;1.80;1.33;;;2.90;99.90;2.60;98949.00;;;;4885603;28;93318;-65
2023/11/11 06:25:08;;;;;;;2.20;1.90;;;2.90;99.90;2.60;98942.00;;;;4886613;28;122582;-66
2023/11/11 06:27:34;;;;;;;2.57;1.83;;;3.40;99.90;2.60;98942.00;;;;4883983;28;123580;-66
2023/11/11 06:30:00;;;;;;;2.47;2.27;;;2.80;99.90;2.60;98948.00;;;;4891089;28;92728;-66
2023/11/11 06:32:26;;;;;;;4.77;2.63;;;2.90;99.90;2.50;98945.00;;;;4888379;28;93388;-66
2023/11/11 06:34:52;;;;;;;2.17;2.00;;;2.80;99.90;2.50;98949.00;;;;4889457;28;105652;-65
2023/11/11 06:37:19;;;;;;;1.97;1.70;;;2.80;99.90;2.50;98949.00;;;;4886857;28;122356;-65
2023/11/11 06:39:45;;;;;;;2.47;2.13;;;2.80;99.90;2.60;98954.00;;;;4885223;28;93325;-65
2023/11/11 06:42:10;;;;;;;8.93;3.37;;;2.80;99.90;2.60;98956.00;;;;4880471;28;93233;-65
2023/11/11 06:44:36;;;;;;;2.40;2.20;;;2.80;99.90;2.60;98958.00;;;;4879509;28;123242;-66
2023/11/11 06:47:02;;;;;;;2.77;2.47;;;2.80;99.90;2.60;98955.00;;;;4882521;28;121739;-65
2023/11/11 06:49:28;;;;;;;2.60;2.33;;;2.90;99.90;2.60;98947.00;;;;4887484;28;92866;-65
2023/11/11 06:51:56;;;;;;;2.87;2.43;;;2.90;99.90;2.70;98963.00;;;;4888708;28;108960;-66
2023/11/11 06:54:22;;;;;;;2.77;2.27;;;2.90;99.90;2.70;98965.00;;;;4888794;28;93020;-66
2023/11/11 06:56:48;;;;;;;2.90;2.53;;;2.90;99.90;2.80;98966.00;;;;4886237;28;93652;-66
2023/11/11 06:59:15;;;;;;;2.80;2.50;;;3.00;99.90;2.80;98960.00;;;;4888222;28;109838;-67
2023/11/11 07:01:40;;;;;;;3.33;2.37;;;3.10;99.90;2.90;98972.00;;;;4889159;28;92224;-65
2023/11/11 07:04:07;;;;;;;3.50;2.67;;;3.10;99.90;3.00;98964.00;;;;4887489;28;94324;-67
2023/11/11 07:06:33;;;;;;;3.03;2.53;;;3.20;99.90;3.10;98970.00;;;;4888099;28;93766;-67
2023/11/11 07:08:58;;;;;;;2.90;2.27;;;3.30;99.90;3.20;98967.00;;;;4887675;28;93894;-67
2023/11/11 07:11:24;;;;;;;3.37;3.03;;;3.90;99.90;3.30;98965.00;;;;4886909;28;109450;-66
2023/11/11 07:13:50;;;;;;;2.97;2.30;;;3.50;99.90;3.40;98972.00;;;;4888727;28;93821;-66
2023/11/11 07:16:18;;;;;;;2.43;2.23;;;3.50;99.90;3.50;98971.00;;;;4887631;28;93416;-67
2023/11/11 07:18:48;;;;;;;5.40;3.40;;;4.00;99.90;3.60;98972.00;;;;4873789;28;95046;-66
2023/11/11 07:21:25;;;;;;;3.20;2.90;;;3.80;99.90;3.70;98974.00;;;;4875375;28;92921;-66
2023/11/11 07:23:52;;;;;;;3.93;3.30;;;3.90;99.90;3.70;98980.00;;;;4885372;28;122173;-66
2023/11/11 07:26:18;;;;;;;3.57;2.83;;;3.90;99.90;3.80;98974.00;;;;4884601;28;93599;-66
2023/11/11 07:28:45;;;;;;;3.43;2.77;;;4.00;99.90;3.90;98971.00;;;;4885966;28;92918;-66
2023/11/11 07:31:13;;;;;;;3.03;2.23;;;4.10;99.90;4.00;98981.00;;;;4885006;28;92892;-66
2023/11/11 07:33:38;;;;;;;3.13;2.83;;;4.70;99.90;4.10;98978.00;;;;4888426;28;94901;-67
2023/11/11 07:36:05;;;;;;;3.53;2.80;;;4.30;99.90;4.20;98981.00;;;;4886452;28;123341;-67
2023/11/11 07:38:32;;;;;;;6.30;4.53;;;4.30;99.90;4.30;98994.00;;;;4886122;28;93122;-67
2023/11/11 07:40:58;;;;;;;5.43;4.43;;;4.40;99.90;4.30;98987.00;;;;4885936;28;93169;-66
2023/11/11 07:43:24;;;;;;;5.43;3.73;;;4.50;99.90;4.40;98988.00;;;;4887645;28;93997;-66
2023/11/11 07:45:49;;;;;;;5.57;4.30;;;5.10;99.90;4.50;98992.00;;;;4885022;28;121065;-66
2023/11/11 07:48:15;;;;;;;9.83;7.07;;;4.60;99.90;4.50;98986.00;;;;4888309;28;110411;-66
2023/11/11 07:50:41;;;;;;;9.47;6.27;;;4.70;99.90;4.60;99001.00;;;;4886663;28;102458;-65
2023/11/11 07:53:08;;;;;;;10.47;5.57;;;4.80;99.90;4.70;98993.00;;;;4887480;28;93246;-65
2023/11/11 07:55:33;;;;;;;9.47;6.10;;;4.80;99.90;4.80;98990.00;;;;4886250;28;93281;-65
2023/11/11 07:58:00;;;;;;;9.67;5.07;;;4.90;99.90;4.80;98984.00;;;;4883226;28;111374;-65
2023/11/11 08:00:26;;;;;;;3.53;3.07;;;5.00;99.90;4.90;98993.00;;;;4883717;28;93529;-65
2023/11/11 08:02:52;;;;;;;5.00;3.57;;;5.00;99.90;4.90;99000.00;;;;4885292;28;123608;-65
2023/11/11 08:05:17;;;;;;;6.40;3.80;;;4.90;99.90;4.90;98988.00;;;;4887183;28;98595;-65
2023/11/11 08:07:43;;;;;;;4.93;4.43;;;5.10;99.90;5.00;98991.00;;;;4886683;28;111543;-65
2023/11/11 08:10:10;;;;;;;6.83;4.23;;;5.10;99.90;5.00;99005.00;;;;4888492;28;109605;-65
2023/11/11 08:12:37;;;;;;;6.97;4.27;;;5.10;99.90;5.10;99012.00;;;;4884223;28;94005;-66
2023/11/11 08:15:03;;;;;;;6.37;4.30;;;5.70;99.90;5.20;99015.00;;;;4857759;28;95833;-65
2023/11/11 08:17:29;;;;;;;4.57;3.70;;;5.30;99.90;5.20;99019.00;;;;4889378;28;93418;-66
2023/11/11 08:19:55;;;;;;;5.40;4.47;;;5.30;99.90;5.30;99006.00;;;;4886130;28;93224;-66
2023/11/11 08:22:21;;;;;;;4.57;4.17;;;5.40;99.90;5.40;99007.00;;;;4884740;28;121999;-67
2023/11/11 08:24:46;;;;;;;5.97;3.97;;;5.80;99.90;5.50;99010.00;;;;4886351;28;122917;-66
2023/11/11 08:27:12;;;;;;;5.43;4.87;;;5.60;99.90;5.60;99008.00;;;;4865321;28;110309;-66
2023/11/11 08:29:38;;;;;;;5.77;4.97;;;6.30;99.90;5.70;99015.00;;;;4886000;28;92664;-66
2023/11/11 08:32:04;;;;;;;6.03;5.43;;;5.80;99.90;5.80;99016.00;;;;4881168;28;123552;-66
2023/11/11 08:34:31;;;;;;;5.17;4.67;;;5.90;99.90;5.90;99022.00;;;;4882043;28;113697;-66
2023/11/11 08:36:57;;;;;;;4.67;4.00;;;6.00;99.90;6.00;99023.00;;;;4883675;28;93643;-66
2023/11/11 08:39:24;;;;;;;5.77;4.47;;;6.10;99.90;6.10;99014.00;;;;4882776;28;91968;-66
2023/11/11 08:41:50;;;;;;;4.93;4.23;;;6.20;99.90;6.10;99019.00;;;;4883465;28;93424;-66
2023/11/11 08:44:16;;;;;;;4.70;4.10;;;6.30;99.90;6.30;99019.00;;;;4884978;28;93657;-66
2023/11/11 08:46:42;;;;;;;4.77;3.73;;;6.50;99.90;6.30;99025.00;;;;4867054;28;95966;-66
2023/11/11 08:49:07;;;;;;;28.97;15.27;;;6.40;99.90;6.40;99033.00;;;;4884575;28;98904;-67
2023/11/11 08:51:33;;;;;;;8.63;5.77;;;6.50;99.90;6.50;99018.00;;;;4883035;28;122966;-66
2023/11/11 08:54:00;;;;;;;6.60;6.00;;;6.90;99.90;6.60;99034.00;;;;4882424;28;122700;-66
2023/11/11 08:56:29;;;;;;;6.20;4.20;;;7.10;99.90;6.70;99027.00;;;;4881657;28;92991;-66
2023/11/11 08:58:58;;;;;;;7.13;4.13;;;6.80;99.90;6.80;99033.00;;;;4886263;28;108015;-66
2023/11/11 09:01:23;;;;;;;9.10;4.97;;;6.90;99.90;6.90;99034.00;;;;4886707;28;92790;-66
2023/11/11 09:03:49;;;;;;;8.57;4.77;;;6.90;99.90;7.00;99027.00;;;;4887375;28;122700;-66
2023/11/11 09:06:16;;;;;;;6.77;6.03;;;7.00;99.90;7.00;99038.00;;;;4882625;28;92879;-66
2023/11/11 09:08:45;;;;;;;6.67;5.60;;;7.10;99.90;7.10;99037.00;;;;4889475;28;93048;-66
2023/11/11 09:11:11;;;;;;;6.70;4.27;;;7.20;99.90;7.20;99040.00;;;;4880831;28;123058;-66
2023/11/11 09:13:38;;;;;;;8.70;5.17;;;7.90;99.90;7.20;99047.00;;;;4889566;28;93879;-66
2023/11/11 09:16:05;;;;;;;8.33;5.27;;;7.30;99.90;7.20;99035.00;;;;4887326;28;93003;-66
2023/11/11 09:18:31;;;;;;;5.67;3.97;;;7.30;99.90;7.20;99049.00;;;;4885962;28;92958;-65
2023/11/11 09:20:57;;;;;;;7.40;4.77;;;7.30;99.90;7.30;99039.00;;;;4885057;28;94616;-65
2023/11/11 09:23:23;;;;;;;4.57;3.90;;;7.30;99.90;7.30;99030.00;;;;4883598;28;93197;-65
2023/11/11 09:25:49;;;;;;;9.30;4.43;;;7.40;99.90;7.40;99040.00;;;;4883737;28;93101;-65
2023/11/11 09:28:16;;;;;;;7.37;5.10;;;7.50;99.90;7.40;99042.00;;;;4884530;28;109738;-65
2023/11/11 09:30:42;;;;;;;6.47;5.20;;;7.50;99.90;7.50;99042.00;;;;4885520;28;94215;-65
2023/11/11 09:33:08;;;;;;;6.27;4.93;;;7.60;99.90;7.60;99043.00;;;;4885185;28;93153;-66
2023/11/11 09:35:34;;;;;;;7.20;4.30;;;7.60;99.90;7.60;99037.00;;;;4887819;28;94198;-65
2023/11/11 09:38:00;;;;;;;7.47;4.30;;;8.00;99.90;7.60;99044.00;;;;4884681;28;99968;-65
2023/11/11 09:40:26;;;;;;;5.73;4.03;;;7.70;99.90;7.60;99041.00;;;;4883855;28;105763;-64
2023/11/11 09:42:52;;;;;;;7.73;4.63;;;7.80;99.90;7.70;99042.00;;;;4866642;28;93680;-65
2023/11/11 09:45:19;;;;;;;7.40;4.30;;;7.70;99.90;7.70;99047.00;;;;4890885;28;97392;-65
2023/11/11 09:47:50;;;;;;;9.13;6.90;;;7.80;99.90;7.80;99047.00;;;;4885495;28;93280;-65
2023/11/11 09:50:22;;;;;;;6.93;3.90;;;7.90;99.90;7.90;99050.00;;;;4881363;28;93382;-65
2023/11/11 09:52:49;;;;;;;5.07;3.67;;;7.90;99.90;8.00;99043.00;;;;4863945;28;93427;-65
2023/11/11 09:55:16;;;;;;;7.10;4.57;;;8.00;99.90;8.10;99052.00;;;;4881832;28;92719;-65
2023/11/11 09:57:46;;;;;;;5.83;4.30;;;8.20;99.90;8.30;99056.00;;;;4860366;28;93195;-65
2023/11/11 10:00:14;;;;;;;5.80;3.77;;;8.30;99.90;8.60;99050.00;;;;4881648;28;94816;-66
2023/11/11 10:02:40;;;;;;;6.97;3.77;;;8.60;99.90;8.80;99056.00;;;;4880716;28;110112;-67
2023/11/11 10:05:09;;;;;;;4.20;3.17;;;8.80;99.90;9.00;99059.00;;;;4880244;28;107513;-66
2023/11/11 10:07:38;;;;;;;6.33;3.63;;;9.00;99.90;9.20;99055.00;;;;4883538;28;93205;-67
2023/11/11 10:10:08;;;;;;;3.33;3.03;;;9.20;99.90;9.50;99059.00;;;;4884588;28;93010;-66
2023/11/11 10:12:35;;;;;;;3.43;2.43;;;9.40;99.90;9.60;99052.00;;;;4874142;28;93418;-66
2023/11/11 10:15:04;;;;;;;4.10;2.83;;;9.60;99.90;9.60;99058.00;;;;4885470;28;93273;-65
2023/11/11 10:17:38;;;;;;;4.07;2.63;;;9.70;99.90;9.60;99058.00;;;;4888034;28;92694;-65
2023/11/11 10:20:13;;;;;;;3.87;3.47;;;9.60;99.90;9.50;99062.00;;;;4890504;28;93625;-66
2023/11/11 10:22:47;;;;;;;11.77;2.93;;;9.50;99.90;9.50;99069.00;;;;4886183;28;94023;-66
2023/11/11 10:25:17;;;;;;;4.03;2.80;;;9.60;99.90;9.50;99055.00;;;;4889729;28;94116;-65
2023/11/11 10:27:54;;;;;;;6.10;2.97;;;9.50;99.90;9.40;99061.00;;;;4888415;28;94629;-64
2023/11/11 10:30:24;;;;;;;6.00;3.07;;;9.50;99.90;9.40;99062.00;;;;4889089;28;94208;-64
2023/11/11 10:32:51;;;;;;;6.80;3.20;;;9.50;99.90;9.40;99065.00;;;;4890007;28;92868;-65
2023/11/11 10:35:18;;;;;;;3.77;3.23;;;9.50;99.90;9.30;99063.00;;;;4889651;28;92976;-66
2023/11/11 10:37:46;;;;;;;3.83;2.77;;;9.40;99.90;9.30;99064.00;;;;4891185;28;93003;-66
2023/11/11 10:40:16;;;;;;;4.20;2.70;;;9.40;99.90;9.30;99071.00;;;;4887731;28;94074;-66
2023/11/11 10:42:45;;;;;;;3.23;2.93;;;9.40;99.90;9.30;99066.00;;;;4888533;28;93189;-66
2023/11/11 10:45:12;;;;;;;2.97;2.10;;;9.40;99.90;9.30;99057.00;;;;4887033;28;93319;-65
2023/11/11 10:47:39;;;;;;;4.27;2.53;;;9.40;99.90;9.40;99065.00;;;;4888416;28;93463;-67
2023/11/11 10:50:08;;;;;;;4.80;2.80;;;9.40;99.90;9.40;99070.00;;;;4882962;28;122191;-66
2023/11/11 10:52:35;;;;;;;5.00;3.53;;;9.50;99.90;9.40;99075.00;;;;4890816;28;94115;-66
2023/11/11 10:55:05;;;;;;;4.77;2.90;;;9.50;99.90;9.40;99077.00;;;;4887750;28;93243;-66
2023/11/11 10:57:32;;;;;;;3.90;2.63;;;9.50;99.90;9.40;99082.00;;;;4885715;28;93119;-67
2023/11/11 10:59:59;;;;;;;5.73;3.30;;;9.50;99.90;9.50;99071.00;;;;4885219;28;93454;-67
2023/11/11 11:02:26;;;;;;;4.47;3.23;;;9.50;99.90;9.50;99069.00;;;;4888303;28;93544;-65
2023/11/11 11:04:59;;;;;;;4.57;3.57;;;9.60;99.90;9.50;99081.00;;;;4888087;28;93051;-67